Shell Lake, Canada
Current Conditions -  °F | °C
As of 3:36 AM on Sunday 26 Oct 2014 (Local Time) from CYPA Reporting Station
Broken Clouds Broken Clouds  
Wind Chill: 22°   Ceiling: 17000
Heat Index: 34°   Visibility: 15mi
Dew Point: 28°   Wind: 20mph
Humidity: 81%   Direction: 90°E
Pressure: 29.7"   Gusts: 26mph
Location:  53.3°N, 107.05°W
Report Text: CYPA 260936Z 09017G23KT 15SM SCT100 BKN170 01/M02 A2970 RMK AC4AC3 SLP074
Loading
Personal Weather Stations






























Interactive Weather Map
Tropical Storm Tracking
New forecast layout! Learn more

10-Day Weather Forecast

Advertisements
Track Severe Weather on mobile